createdAt,value
2019-05-01T00:00:19.096Z,11.05
2019-05-01T00:01:19.133Z,11.15
2019-05-01T00:02:19.071Z,11.16
2019-05-01T00:03:19.068Z,11.05
2019-05-01T00:04:19.049Z,11.19
2019-05-01T00:05:19.055Z,11.15
2019-05-01T00:06:19.057Z,11.16
2019-05-01T00:07:19.043Z,11.19
2019-05-01T00:08:19.005Z,11.20
2019-05-01T00:09:18.994Z,11.15
2019-05-01T00:10:18.983Z,11.18
2019-05-01T00:11:18.971Z,11.08
2019-05-01T00:12:18.983Z,11.09
2019-05-01T00:13:18.954Z,11.00
2019-05-01T00:14:18.936Z,11.03
2019-05-01T00:15:18.928Z,11.01
2019-05-01T00:16:18.912Z,10.95
2019-05-01T00:17:18.926Z,10.94
2019-05-01T00:18:18.891Z,10.95
2019-05-01T00:19:18.887Z,10.85
2019-05-01T00:20:18.873Z,10.87
2019-05-01T00:21:18.861Z,10.87
2019-05-01T00:22:18.877Z,10.83
2019-05-01T00:23:18.834Z,10.78
2019-05-01T00:24:18.829Z,10.78
2019-05-01T00:25:18.809Z,10.61
2019-05-01T00:26:18.816Z,10.55
2019-05-01T00:27:18.824Z,10.55
2019-05-01T00:28:18.788Z,10.49
2019-05-01T00:29:18.770Z,10.64
2019-05-01T00:30:29.344Z,10.62
2019-05-01T00:31:19.742Z,10.58
2019-05-01T00:32:18.754Z,10.58
2019-05-01T00:33:18.735Z,10.76
2019-05-01T00:34:18.713Z,10.68
2019-05-01T00:35:18.700Z,10.68
2019-05-01T00:36:18.688Z,10.61
2019-05-01T00:37:18.717Z,10.54
2019-05-01T00:38:18.694Z,10.55
2019-05-01T00:39:18.655Z,10.52
2019-05-01T00:40:18.649Z,10.46
2019-05-01T00:41:18.639Z,10.58
2019-05-01T00:42:18.620Z,10.57
2019-05-01T00:43:18.646Z,10.42
2019-05-01T00:44:18.611Z,10.45
2019-05-01T00:45:18.595Z,10.39
2019-05-01T00:46:18.583Z,10.31
2019-05-01T00:47:18.566Z,10.43
2019-05-01T00:48:18.750Z,10.27
2019-05-01T00:49:18.543Z,10.26
2019-05-01T00:50:18.530Z,10.34
2019-05-01T00:51:18.532Z,10.30
2019-05-01T00:52:18.515Z,10.27
2019-05-01T00:53:18.523Z,10.36
2019-05-01T00:54:18.546Z,10.14
2019-05-01T00:55:18.481Z,10.17
2019-05-01T00:56:18.467Z,10.21
2019-05-01T00:57:18.455Z,10.18
2019-05-01T00:58:18.537Z,10.16
2019-05-01T00:59:18.460Z,10.20
2019-05-01T01:00:18.423Z,10.26
2019-05-01T01:01:18.417Z,10.21
2019-05-01T01:02:18.458Z,10.12
2019-05-01T01:03:18.383Z,10.16
2019-05-01T01:04:18.458Z,9.99
2019-05-01T01:05:18.366Z,9.96
2019-05-01T01:06:18.446Z,9.88
2019-05-01T01:07:18.343Z,9.84
2019-05-01T01:08:18.331Z,9.77
2019-05-01T01:09:18.345Z,9.99
2019-05-01T01:10:18.307Z,9.83
2019-05-01T01:11:18.306Z,9.91
2019-05-01T01:12:18.284Z,9.77
2019-05-01T01:13:18.289Z,9.81
2019-05-01T01:14:18.289Z,9.83
2019-05-01T01:15:18.260Z,9.78
2019-05-01T01:16:18.244Z,9.80
2019-05-01T01:17:18.240Z,9.84
2019-05-01T01:18:18.220Z,9.84
2019-05-01T01:19:18.233Z,9.85
2019-05-01T01:20:18.194Z,9.72
2019-05-01T01:21:18.184Z,9.73
2019-05-01T01:22:18.181Z,9.83
2019-05-01T01:23:18.166Z,9.72
2019-05-01T01:24:18.174Z,9.67
2019-05-01T01:25:18.146Z,9.73
2019-05-01T01:26:18.126Z,9.65
2019-05-01T01:27:18.123Z,9.75
2019-05-01T01:28:18.107Z,9.77
2019-05-01T01:29:18.119Z,9.77
2019-05-01T01:30:18.082Z,9.75
2019-05-01T01:31:18.075Z,9.63
2019-05-01T01:32:18.066Z,9.67
2019-05-01T01:33:18.054Z,9.60
2019-05-01T01:34:18.070Z,9.51
2019-05-01T01:35:18.034Z,9.50
2019-05-01T01:36:18.018Z,9.30
2019-05-01T01:37:18.005Z,9.34
2019-05-01T01:38:17.998Z,9.23
2019-05-01T01:39:18.008Z,9.30
2019-05-01T01:40:17.977Z,9.34
2019-05-01T01:41:17.961Z,9.27
2019-05-01T01:42:17.955Z,9.36
2019-05-01T01:43:17.944Z,9.50
2019-05-01T01:44:17.978Z,9.48
2019-05-01T01:45:17.926Z,9.47
2019-05-01T01:46:17.906Z,9.57
2019-05-01T01:47:17.896Z,9.57
2019-05-01T01:48:17.889Z,9.48
2019-05-01T01:49:17.921Z,9.47
2019-05-01T01:50:17.864Z,9.51
2019-05-01T01:51:17.848Z,9.27
2019-05-01T01:52:17.839Z,9.32
2019-05-01T01:53:17.832Z,9.26
2019-05-01T01:54:17.815Z,9.11
2019-05-01T01:55:17.831Z,9.01
2019-05-01T01:56:17.794Z,8.98
2019-05-01T01:57:17.785Z,8.93
2019-05-01T01:58:17.775Z,8.93
2019-05-01T01:59:17.762Z,8.99
2019-05-01T02:00:17.777Z,8.88
2019-05-01T02:01:17.740Z,9.09
2019-05-01T02:02:17.726Z,9.18
2019-05-01T02:03:17.715Z,9.15
2019-05-01T02:04:17.707Z,9.19
2019-05-01T02:05:17.741Z,9.23
2019-05-01T02:06:17.682Z,9.34
2019-05-01T02:07:17.716Z,9.36
2019-05-01T02:08:17.661Z,9.36
2019-05-01T02:09:17.653Z,9.37
2019-05-01T02:10:17.762Z,9.42
2019-05-01T02:11:17.625Z,9.54
2019-05-01T02:12:17.621Z,9.55
2019-05-01T02:13:17.613Z,9.65
2019-05-01T02:14:17.602Z,9.55
2019-05-01T02:15:17.643Z,9.59
2019-05-01T02:16:17.572Z,9.55
2019-05-01T02:17:17.568Z,9.60
2019-05-01T02:18:17.549Z,9.72
2019-05-01T02:19:17.537Z,9.55
2019-05-01T02:20:17.555Z,9.50
2019-05-01T02:21:17.515Z,9.52
2019-05-01T02:22:17.507Z,9.55
2019-05-01T02:23:17.495Z,9.37
2019-05-01T02:24:17.481Z,9.36
2019-05-01T02:25:17.495Z,9.29
2019-05-01T02:26:17.459Z,9.42
2019-05-01T02:27:17.480Z,9.19
2019-05-01T02:28:17.442Z,9.32
2019-05-01T02:29:17.466Z,9.26
2019-05-01T02:30:17.448Z,9.42
2019-05-01T02:31:27.186Z,9.42
2019-05-01T02:32:18.405Z,9.47
2019-05-01T02:33:17.386Z,9.48
2019-05-01T02:34:17.371Z,9.47
2019-05-01T02:35:17.359Z,9.44
2019-05-01T02:36:17.391Z,9.42
2019-05-01T02:37:17.340Z,9.52
2019-05-01T02:38:17.344Z,9.67
2019-05-01T02:39:17.316Z,9.48
2019-05-01T02:40:17.303Z,9.59
2019-05-01T02:41:17.320Z,9.52
2019-05-01T02:42:17.292Z,9.50
2019-05-01T02:43:17.273Z,9.37
2019-05-01T02:44:17.267Z,9.24
2019-05-01T02:45:17.251Z,9.29
2019-05-01T02:46:17.279Z,9.27
2019-05-01T02:47:17.232Z,9.15
2019-05-01T02:48:17.215Z,9.26
2019-05-01T02:49:17.215Z,9.30
2019-05-01T02:50:17.195Z,9.15
2019-05-01T02:51:17.214Z,9.09
2019-05-01T02:52:17.212Z,9.16
2019-05-01T02:53:17.162Z,9.23
2019-05-01T02:54:17.172Z,9.23
2019-05-01T02:55:17.145Z,9.24
2019-05-01T02:56:17.244Z,9.19
2019-05-01T02:57:17.145Z,9.26
2019-05-01T02:58:17.246Z,9.36
2019-05-01T02:59:17.091Z,9.45
2019-05-01T03:00:17.145Z,9.32
2019-05-01T03:01:17.071Z,9.26
2019-05-01T03:02:17.120Z,9.27
2019-05-01T03:03:17.055Z,9.33
2019-05-01T03:04:17.037Z,9.34
2019-05-01T03:05:17.034Z,9.22
2019-05-01T03:06:17.019Z,9.29
2019-05-01T03:07:17.035Z,9.27
2019-05-01T03:08:16.999Z,9.19
2019-05-01T03:09:17.027Z,9.15
2019-05-01T03:10:16.982Z,9.23
2019-05-01T03:11:16.964Z,9.32
2019-05-01T03:12:16.983Z,9.22
2019-05-01T03:13:16.942Z,9.37
2019-05-01T03:14:16.938Z,9.41
2019-05-01T03:15:16.923Z,9.40
2019-05-01T03:16:16.906Z,9.48
2019-05-01T03:17:16.922Z,9.47
2019-05-01T03:18:16.880Z,9.44
2019-05-01T03:19:16.875Z,9.44
2019-05-01T03:20:16.862Z,9.50
2019-05-01T03:21:16.848Z,9.52
2019-05-01T03:22:16.862Z,9.65
2019-05-01T03:23:16.833Z,9.67
2019-05-01T03:24:16.823Z,9.78
2019-05-01T03:25:16.801Z,9.77
2019-05-01T03:26:16.795Z,9.84
2019-05-01T03:27:16.807Z,9.72
2019-05-01T03:28:16.772Z,9.60
2019-05-01T03:29:16.759Z,9.73
2019-05-01T03:30:16.754Z,9.66
2019-05-01T03:31:16.736Z,9.65
2019-05-01T03:32:19.590Z,9.50
2019-05-01T03:33:16.739Z,9.42
2019-05-01T03:34:16.711Z,9.42
2019-05-01T03:35:16.693Z,9.40
2019-05-01T03:36:16.679Z,9.44
2019-05-01T03:37:16.675Z,9.34
2019-05-01T03:38:16.689Z,9.30
2019-05-01T03:39:16.647Z,9.36
2019-05-01T03:40:16.641Z,9.34
2019-05-01T03:41:16.635Z,9.32
2019-05-01T03:42:16.618Z,9.42
2019-05-01T03:43:16.633Z,9.47
2019-05-01T03:44:16.598Z,9.36
2019-05-01T03:45:16.581Z,9.27
2019-05-01T03:46:16.570Z,9.29
2019-05-01T03:47:16.565Z,9.22
2019-05-01T03:48:16.571Z,9.18
2019-05-01T03:49:16.573Z,9.18
2019-05-01T03:50:16.537Z,9.14
2019-05-01T03:51:16.520Z,9.14
2019-05-01T03:52:16.514Z,8.98
2019-05-01T03:53:16.506Z,8.85
2019-05-01T03:54:16.519Z,8.78
2019-05-01T03:55:16.467Z,8.65
2019-05-01T03:56:16.473Z,8.68
2019-05-01T03:57:16.459Z,8.68
2019-05-01T03:58:16.481Z,8.86
2019-05-01T03:59:16.620Z,8.70
2019-05-01T04:00:16.417Z,8.88
2019-05-01T04:01:16.512Z,8.88
2019-05-01T04:02:32.197Z,8.89
2019-05-01T04:03:17.386Z,8.95
2019-05-01T04:04:16.418Z,8.95
2019-05-01T04:05:16.365Z,8.92
2019-05-01T04:06:16.347Z,8.86
2019-05-01T04:07:16.440Z,8.80
2019-05-01T04:08:16.329Z,8.77
2019-05-01T04:09:16.349Z,8.85
2019-05-01T04:10:16.299Z,8.92
2019-05-01T04:11:16.409Z,8.92
2019-05-01T04:12:16.283Z,8.93
2019-05-01T04:13:16.340Z,8.86
2019-05-01T04:14:16.302Z,8.90
2019-05-01T04:15:16.322Z,8.90
2019-05-01T04:16:16.245Z,8.90
2019-05-01T04:17:16.266Z,9.09
2019-05-01T04:18:16.223Z,9.03
2019-05-01T04:19:16.287Z,8.96
2019-05-01T04:20:16.191Z,9.12
2019-05-01T04:21:16.200Z,9.12
2019-05-01T04:22:16.176Z,9.19
2019-05-01T04:23:16.162Z,9.14
2019-05-01T04:24:16.143Z,9.09
2019-05-01T04:25:16.155Z,9.18
2019-05-01T04:26:16.136Z,9.19
2019-05-01T04:27:16.112Z,9.22
2019-05-01T04:28:16.103Z,9.11
2019-05-01T04:29:16.088Z,9.12
2019-05-01T04:30:16.132Z,9.09
2019-05-01T04:31:16.068Z,9.22
2019-05-01T04:32:16.075Z,9.24
2019-05-01T04:33:16.046Z,9.22
2019-05-01T04:34:16.040Z,9.23
2019-05-01T04:35:16.059Z,9.22
2019-05-01T04:36:16.012Z,9.11
2019-05-01T04:37:16.013Z,9.24
2019-05-01T04:38:15.989Z,9.11
2019-05-01T04:39:15.990Z,9.18
2019-05-01T04:40:18.661Z,8.98
2019-05-01T04:41:15.980Z,8.95
2019-05-01T04:42:15.943Z,8.89
2019-05-01T04:43:15.931Z,8.92
2019-05-01T04:44:15.923Z,8.88
2019-05-01T04:45:15.923Z,8.90
2019-05-01T04:46:15.924Z,8.86
2019-05-01T04:47:15.885Z,8.92
2019-05-01T04:48:15.875Z,9.01
2019-05-01T04:49:18.023Z,8.95
2019-05-01T04:50:15.857Z,9.04
2019-05-01T04:51:15.867Z,8.95
2019-05-01T04:52:15.836Z,8.90
2019-05-01T04:53:15.822Z,8.93
2019-05-01T04:54:15.821Z,9.04
2019-05-01T04:55:15.802Z,9.08
2019-05-01T04:56:15.811Z,9.03
2019-05-01T04:57:15.777Z,9.04
2019-05-01T04:58:15.766Z,9.16
2019-05-01T04:59:15.754Z,8.98
2019-05-01T05:00:15.749Z,8.98
2019-05-01T05:01:15.761Z,8.93
2019-05-01T05:02:15.722Z,8.89
2019-05-01T05:03:15.706Z,9.01
2019-05-01T05:04:15.695Z,8.98
2019-05-01T05:05:15.693Z,8.85
2019-05-01T05:06:15.700Z,9.03
2019-05-01T05:07:15.661Z,8.92
2019-05-01T05:08:15.653Z,8.96
2019-05-01T05:09:15.643Z,9.03
2019-05-01T05:10:15.635Z,8.93
2019-05-01T05:11:15.651Z,9.01
2019-05-01T05:12:15.606Z,8.98
2019-05-01T05:13:15.602Z,9.14
2019-05-01T05:14:15.653Z,9.14
2019-05-01T05:15:15.575Z,8.96
2019-05-01T05:16:15.594Z,9.06
2019-05-01T05:17:15.558Z,9.14
2019-05-01T05:18:15.545Z,9.04
2019-05-01T05:19:15.539Z,9.03
2019-05-01T05:20:15.523Z,9.22
2019-05-01T05:21:15.530Z,9.09
2019-05-01T05:22:16.672Z,9.14
2019-05-01T05:23:15.489Z,9.24
2019-05-01T05:24:15.470Z,9.26
2019-05-01T05:25:15.460Z,9.30
2019-05-01T05:26:15.449Z,9.22
2019-05-01T05:27:15.468Z,9.34
2019-05-01T05:28:15.428Z,9.23
2019-05-01T05:29:15.412Z,9.09
2019-05-01T05:30:15.402Z,9.22
2019-05-01T05:31:15.394Z,9.27
2019-05-01T05:32:15.415Z,9.26
2019-05-01T05:33:18.475Z,9.23
2019-05-01T05:34:18.055Z,9.32
2019-05-01T05:35:15.356Z,9.47
2019-05-01T05:36:15.335Z,9.36
2019-05-01T05:37:15.357Z,9.33
2019-05-01T05:38:15.320Z,9.34
2019-05-01T05:39:15.303Z,9.37
2019-05-01T05:40:15.293Z,9.16
2019-05-01T05:41:15.280Z,9.30
2019-05-01T05:42:15.291Z,9.32
2019-05-01T05:43:15.262Z,9.33
2019-05-01T05:44:15.251Z,9.23
2019-05-01T05:45:15.235Z,9.30
2019-05-01T05:46:15.229Z,9.34
2019-05-01T05:47:15.256Z,9.16
2019-05-01T05:48:15.213Z,9.36
2019-05-01T05:49:15.194Z,9.29
2019-05-01T05:50:15.179Z,9.32
2019-05-01T05:51:15.169Z,9.34
2019-05-01T05:52:15.201Z,9.23
2019-05-01T05:53:15.156Z,9.18
2019-05-01T05:54:15.140Z,9.29
2019-05-01T05:55:15.127Z,9.03
2019-05-01T05:56:15.113Z,9.08
2019-05-01T05:57:15.130Z,9.09
2019-05-01T05:58:15.092Z,9.04
2019-05-01T05:59:15.086Z,9.04
2019-05-01T06:00:15.073Z,9.11
2019-05-01T06:01:15.064Z,9.14
2019-05-01T06:02:15.050Z,9.19
2019-05-01T06:03:15.184Z,9.22
2019-05-01T06:04:15.024Z,9.27
2019-05-01T06:05:15.014Z,9.36
2019-05-01T06:06:15.023Z,9.26
2019-05-01T06:07:15.099Z,9.32
2019-05-01T06:08:15.009Z,9.26
2019-05-01T06:09:15.622Z,9.41
2019-05-01T06:10:18.440Z,9.29
2019-05-01T06:11:15.944Z,9.34
2019-05-01T06:12:14.949Z,9.37
2019-05-01T06:13:17.867Z,9.27
2019-05-01T06:14:15.914Z,9.34
2019-05-01T06:15:14.911Z,9.45
2019-05-01T06:16:16.225Z,9.18
2019-05-01T06:17:14.883Z,9.48
2019-05-01T06:18:14.895Z,9.44
2019-05-01T06:19:16.312Z,9.50
2019-05-01T06:20:14.857Z,9.50
2019-05-01T06:21:14.835Z,9.54
2019-05-01T06:22:14.822Z,9.57
2019-05-01T06:23:15.864Z,9.54
2019-05-01T06:24:15.807Z,9.52
2019-05-01T06:25:22.334Z,9.57
2019-05-01T06:26:15.782Z,9.52
2019-05-01T06:27:15.074Z,9.66
2019-05-01T06:28:14.790Z,9.70
2019-05-01T06:29:14.749Z,9.80
2019-05-01T06:30:14.734Z,9.70
2019-05-01T06:31:17.752Z,9.65
2019-05-01T06:32:15.719Z,9.70
2019-05-01T06:33:14.728Z,9.67
2019-05-01T06:34:14.724Z,9.78
2019-05-01T06:35:14.681Z,9.75
2019-05-01T06:36:14.686Z,9.65
2019-05-01T06:37:14.658Z,9.51
2019-05-01T06:38:14.653Z,9.59
2019-05-01T06:39:14.664Z,9.50
2019-05-01T06:40:18.829Z,9.55
2019-05-01T06:41:15.611Z,9.59
2019-05-01T06:42:15.477Z,9.67
2019-05-01T06:43:14.588Z,9.55
2019-05-01T06:44:14.607Z,9.42
2019-05-01T06:45:16.759Z,9.15
2019-05-01T06:46:14.567Z,9.24
2019-05-01T06:47:14.546Z,9.26
2019-05-01T06:48:17.799Z,9.41
2019-05-01T06:49:14.550Z,9.45
2019-05-01T06:50:14.516Z,9.40
2019-05-01T06:51:17.911Z,9.44
2019-05-01T06:52:14.494Z,9.41
2019-05-01T06:53:14.488Z,9.48
2019-05-01T06:54:16.104Z,9.57
2019-05-01T06:55:14.466Z,9.37
2019-05-01T06:56:14.446Z,9.42
2019-05-01T06:57:14.432Z,9.36
2019-05-01T06:58:14.904Z,9.37
2019-05-01T06:59:15.445Z,9.51
2019-05-01T07:00:14.400Z,9.47
2019-05-01T07:01:18.874Z,9.40
2019-05-01T07:02:16.040Z,9.32
2019-05-01T07:03:14.379Z,9.23
2019-05-01T07:04:14.356Z,9.23
2019-05-01T07:05:16.334Z,9.15
2019-05-01T07:06:14.681Z,9.34
2019-05-01T07:07:24.932Z,9.45
2019-05-01T07:08:24.493Z,9.33
2019-05-01T07:09:27.473Z,9.52
2019-05-01T07:10:15.327Z,9.55
2019-05-01T07:11:15.499Z,9.45
2019-05-01T07:12:14.372Z,9.54
2019-05-01T07:13:14.258Z,9.57
2019-05-01T07:14:16.499Z,9.57
2019-05-01T07:15:14.251Z,9.47
2019-05-01T07:16:14.229Z,9.52
2019-05-01T07:17:14.835Z,9.63
2019-05-01T07:18:14.203Z,9.65
2019-05-01T07:19:14.189Z,9.65
2019-05-01T07:20:16.673Z,9.72
2019-05-01T07:21:14.162Z,9.84
2019-05-01T07:22:14.237Z,9.66
2019-05-01T07:23:17.358Z,9.85
2019-05-01T07:24:14.137Z,9.81
2019-05-01T07:25:14.150Z,9.83
2019-05-01T07:26:14.823Z,9.75
2019-05-01T07:27:14.100Z,9.80
2019-05-01T07:28:14.088Z,9.91
2019-05-01T07:29:14.077Z,9.83
2019-05-01T07:30:15.887Z,9.81
2019-05-01T07:31:15.065Z,9.91
2019-05-01T07:32:15.158Z,9.78
2019-05-01T07:33:16.642Z,9.87
2019-05-01T07:34:16.718Z,9.83
2019-05-01T07:35:14.048Z,9.85
2019-05-01T07:36:16.305Z,9.84
2019-05-01T07:37:13.993Z,9.75
2019-05-01T07:38:13.980Z,9.87
2019-05-01T07:39:14.686Z,9.87
2019-05-01T07:40:13.982Z,9.73
2019-05-01T07:41:13.950Z,9.80
2019-05-01T07:42:13.987Z,9.83
2019-05-01T07:43:13.920Z,9.93
2019-05-01T07:44:13.906Z,9.70
2019-05-01T07:45:13.893Z,9.80
2019-05-01T07:46:18.217Z,9.77
2019-05-01T07:47:14.871Z,9.67
2019-05-01T07:48:13.866Z,9.65
2019-05-01T07:49:17.599Z,9.73
2019-05-01T07:50:13.841Z,9.77
2019-05-01T07:51:13.851Z,9.78
2019-05-01T07:52:17.194Z,9.90
2019-05-01T07:53:13.804Z,9.88
2019-05-01T07:54:13.793Z,9.93
2019-05-01T07:55:18.137Z,9.85
2019-05-01T07:56:13.796Z,9.85
2019-05-01T07:57:13.755Z,9.91
2019-05-01T07:58:15.908Z,10.05
2019-05-01T07:59:13.734Z,9.99
2019-05-01T08:00:13.974Z,10.01
2019-05-01T08:01:18.325Z,9.91
2019-05-01T08:02:14.698Z,9.94
2019-05-01T08:03:13.692Z,10.06
2019-05-01T08:04:18.075Z,9.91
2019-05-01T08:05:14.683Z,10.03
2019-05-01T08:06:16.209Z,10.10
2019-05-01T08:07:14.640Z,10.01
2019-05-01T08:08:13.642Z,10.21
2019-05-01T08:09:15.216Z,10.18
2019-05-01T08:10:13.623Z,10.14
2019-05-01T08:11:13.619Z,10.10
2019-05-01T08:12:14.439Z,10.14
2019-05-01T08:13:13.584Z,10.28
2019-05-01T08:14:16.645Z,10.27
2019-05-01T08:15:13.556Z,10.18
2019-05-01T08:16:13.581Z,10.28
2019-05-01T08:17:18.051Z,10.12
2019-05-01T08:18:14.522Z,10.21
2019-05-01T08:19:13.508Z,10.20
2019-05-01T08:20:14.941Z,10.27
2019-05-01T08:21:13.529Z,10.17
2019-05-01T08:22:13.485Z,10.24
2019-05-01T08:23:13.768Z,10.41
2019-05-01T08:24:13.451Z,10.38
2019-05-01T08:25:13.968Z,10.38
2019-05-01T08:26:13.439Z,10.48
2019-05-01T08:27:15.663Z,10.42
2019-05-01T08:28:14.409Z,10.52
2019-05-01T08:29:13.397Z,10.41
2019-05-01T08:30:17.441Z,10.43
2019-05-01T08:31:14.408Z,10.48
2019-05-01T08:32:13.416Z,10.45
2019-05-01T08:33:14.585Z,10.46
2019-05-01T08:34:13.348Z,10.61
2019-05-01T08:35:13.335Z,10.58
2019-05-01T08:36:13.505Z,10.55
2019-05-01T08:37:13.349Z,10.64
2019-05-01T08:38:13.325Z,10.62
2019-05-01T08:39:13.973Z,10.58
2019-05-01T08:40:15.816Z,10.76
2019-05-01T08:41:14.271Z,10.76
2019-05-01T08:42:13.298Z,10.82
2019-05-01T08:43:13.736Z,10.91
2019-05-01T08:44:13.234Z,10.82
2019-05-01T08:45:13.222Z,10.85
2019-05-01T08:46:16.474Z,10.83
2019-05-01T08:47:13.235Z,10.85
2019-05-01T08:48:13.190Z,10.86
2019-05-01T08:49:13.208Z,10.79
2019-05-01T08:50:13.165Z,10.75
2019-05-01T08:51:13.155Z,10.65
2019-05-01T08:52:14.015Z,10.49
2019-05-01T08:53:13.133Z,10.49
2019-05-01T08:54:13.120Z,10.41
2019-05-01T08:55:13.109Z,10.34
2019-05-01T08:56:17.144Z,10.35
2019-05-01T08:57:14.121Z,10.43
2019-05-01T08:58:14.003Z,10.45
2019-05-01T08:59:13.076Z,10.62
2019-05-01T09:00:13.087Z,10.61
2019-05-01T09:01:15.011Z,10.78
2019-05-01T09:02:13.064Z,10.67
2019-05-01T09:03:13.489Z,10.64
2019-05-01T09:04:14.007Z,10.67
2019-05-01T09:05:27.648Z,10.78
2019-05-01T09:06:13.988Z,10.79
2019-05-01T09:07:14.628Z,10.78
2019-05-01T09:08:13.963Z,10.70
2019-05-01T09:09:12.962Z,10.82
2019-05-01T09:10:17.163Z,10.86
2019-05-01T09:11:13.939Z,10.94
2019-05-01T09:12:13.632Z,10.79
2019-05-01T09:13:12.932Z,10.76
2019-05-01T09:14:12.915Z,10.70
2019-05-01T09:15:14.641Z,10.70
2019-05-01T09:16:12.887Z,10.61
2019-05-01T09:17:12.865Z,10.67
2019-05-01T09:18:12.943Z,10.73
2019-05-01T09:19:12.837Z,10.73
2019-05-01T09:20:12.833Z,10.64
2019-05-01T09:21:12.832Z,10.76
2019-05-01T09:22:12.811Z,10.73
2019-05-01T09:23:14.388Z,10.98
2019-05-01T09:24:12.893Z,10.94
2019-05-01T09:25:12.778Z,11.00
2019-05-01T09:26:15.892Z,11.08
2019-05-01T09:27:12.757Z,11.04
2019-05-01T09:28:12.814Z,11.01
2019-05-01T09:29:16.150Z,11.09
2019-05-01T09:30:13.720Z,11.08
2019-05-01T09:31:12.724Z,11.00
2019-05-01T09:32:12.704Z,11.12
2019-05-01T09:33:12.723Z,11.19
2019-05-01T09:34:14.144Z,11.22
2019-05-01T09:35:15.861Z,11.30
2019-05-01T09:36:12.657Z,11.13
2019-05-01T09:37:12.639Z,11.31
2019-05-01T09:38:12.656Z,11.37
2019-05-01T09:39:12.634Z,11.34
2019-05-01T09:40:12.615Z,11.33
2019-05-01T09:41:12.644Z,11.49
2019-05-01T09:42:12.592Z,11.55
2019-05-01T09:43:12.617Z,11.67
2019-05-01T09:44:12.588Z,11.58
2019-05-01T09:45:12.556Z,11.69
2019-05-01T09:46:12.538Z,11.59
2019-05-01T09:47:12.525Z,11.37
2019-05-01T09:48:12.555Z,11.27
2019-05-01T09:49:14.292Z,11.13
2019-05-01T09:50:13.497Z,11.09
2019-05-01T09:51:12.493Z,11.25
2019-05-01T09:52:12.474Z,11.18
2019-05-01T09:53:12.480Z,11.38
2019-05-01T09:54:12.481Z,11.38
2019-05-01T09:55:12.444Z,11.38
2019-05-01T09:56:12.444Z,11.46
2019-05-01T09:57:12.417Z,11.54
2019-05-01T09:58:12.414Z,11.49
2019-05-01T09:59:16.847Z,11.66
2019-05-01T10:00:13.385Z,11.76
2019-05-01T10:01:12.384Z,11.77
2019-05-01T10:02:12.360Z,11.77
2019-05-01T10:03:13.034Z,11.79
2019-05-01T10:04:12.362Z,11.87
2019-05-01T10:05:12.325Z,11.85
2019-05-01T10:06:16.726Z,11.74
2019-05-01T10:07:13.305Z,11.69
2019-05-01T10:08:12.304Z,11.79
2019-05-01T10:09:16.861Z,11.82
2019-05-01T10:10:13.282Z,11.88
2019-05-01T10:11:12.259Z,11.82
2019-05-01T10:12:13.137Z,11.69
2019-05-01T10:13:12.238Z,11.74
2019-05-01T10:14:12.249Z,11.74
2019-05-01T10:15:12.215Z,11.96
2019-05-01T10:16:12.202Z,12.11
2019-05-01T10:17:13.597Z,12.13
2019-05-01T10:18:12.200Z,12.17
2019-05-01T10:19:12.174Z,12.25
2019-05-01T10:20:12.184Z,12.43
2019-05-01T10:21:12.143Z,12.44
2019-05-01T10:22:12.136Z,12.43
2019-05-01T10:23:13.056Z,12.58
2019-05-01T10:24:12.156Z,12.33
2019-05-01T10:25:13.441Z,12.38
2019-05-01T10:26:12.094Z,12.36
2019-05-01T10:27:12.075Z,12.58
2019-05-01T10:28:14.623Z,12.53
2019-05-01T10:29:13.086Z,12.40
2019-05-01T10:30:12.071Z,12.23
2019-05-01T10:31:13.205Z,12.25
2019-05-01T10:32:12.028Z,12.17
2019-05-01T10:33:12.024Z,12.36
2019-05-01T10:34:12.036Z,12.40
2019-05-01T10:35:14.165Z,12.50
2019-05-01T10:36:18.630Z,12.55
2019-05-01T10:37:12.961Z,12.58
2019-05-01T10:38:11.955Z,12.68
2019-05-01T10:39:16.090Z,12.76
2019-05-01T10:40:12.968Z,12.77
2019-05-01T10:41:11.985Z,12.73
2019-05-01T10:42:11.914Z,12.90
2019-05-01T10:43:11.901Z,12.99
2019-05-01T10:44:11.889Z,13.17
2019-05-01T10:45:11.933Z,13.16
2019-05-01T10:46:11.860Z,13.20
2019-05-01T10:47:11.854Z,13.32
2019-05-01T10:48:11.873Z,13.36
2019-05-01T10:49:11.832Z,13.57
2019-05-01T10:50:11.848Z,13.93
2019-05-01T10:51:11.835Z,14.08
2019-05-01T10:52:14.257Z,14.41
2019-05-01T10:53:11.782Z,14.66
2019-05-01T10:54:11.784Z,14.87
2019-05-01T10:55:11.822Z,14.95
2019-05-01T10:56:11.875Z,14.69
2019-05-01T10:57:13.041Z,14.59
2019-05-01T10:58:12.854Z,14.46
2019-05-01T10:59:12.932Z,14.45
2019-05-01T11:00:11.705Z,14.49
2019-05-01T11:01:11.724Z,14.52
2019-05-01T11:02:11.683Z,14.73
2019-05-01T11:03:11.667Z,14.87
2019-05-01T11:04:11.672Z,14.97
2019-05-01T11:05:11.649Z,14.92
2019-05-01T11:06:11.667Z,14.69
2019-05-01T11:07:11.625Z,14.64
2019-05-01T11:08:11.607Z,14.61
2019-05-01T11:09:11.596Z,14.38
2019-05-01T11:10:11.596Z,14.26
2019-05-01T11:11:11.598Z,14.01
2019-05-01T11:12:11.575Z,14.15
2019-05-01T11:13:11.560Z,14.36
2019-05-01T11:14:11.551Z,14.28
2019-05-01T11:15:11.531Z,14.38
2019-05-01T11:16:11.546Z,14.63
2019-05-01T11:17:11.510Z,14.73
2019-05-01T11:18:11.496Z,14.58
2019-05-01T11:19:11.485Z,14.63
2019-05-01T11:20:11.475Z,14.71
2019-05-01T11:21:11.487Z,14.79
2019-05-01T11:22:11.468Z,14.96
2019-05-01T11:23:11.438Z,14.52
2019-05-01T11:24:11.441Z,14.36
2019-05-01T11:25:11.420Z,14.46
2019-05-01T11:26:11.401Z,14.71
2019-05-01T11:27:11.426Z,15.08
2019-05-01T11:28:11.391Z,15.38
2019-05-01T11:29:11.371Z,15.58
2019-05-01T11:30:11.364Z,15.84
2019-05-01T11:31:11.374Z,16.14
2019-05-01T11:32:11.385Z,15.88
2019-05-01T11:33:11.329Z,15.58
2019-05-01T11:34:11.312Z,15.70
2019-05-01T11:35:11.298Z,15.87
2019-05-01T11:36:11.290Z,15.65
2019-05-01T11:37:11.314Z,15.68
2019-05-01T11:38:11.276Z,15.73
2019-05-01T11:39:11.254Z,15.70
2019-05-01T11:40:11.245Z,15.51
2019-05-01T11:41:11.239Z,15.47
2019-05-01T11:42:11.254Z,15.19
2019-05-01T11:43:11.212Z,15.15
2019-05-01T11:44:11.204Z,15.26
2019-05-01T11:45:11.189Z,15.56
2019-05-01T11:46:11.175Z,15.80
2019-05-01T11:47:11.193Z,15.90
2019-05-01T11:48:11.154Z,16.08
2019-05-01T11:49:11.157Z,16.29
2019-05-01T11:50:11.129Z,16.51
2019-05-01T11:51:11.119Z,16.55
2019-05-01T11:52:11.137Z,16.34
2019-05-01T11:53:11.101Z,16.43
2019-05-01T11:54:11.086Z,16.39
2019-05-01T11:55:11.070Z,16.18
2019-05-01T11:56:11.066Z,15.84
2019-05-01T11:57:11.053Z,15.45
2019-05-01T11:58:11.061Z,15.52
2019-05-01T11:59:11.032Z,15.77
2019-05-01T12:00:11.022Z,16.06
2019-05-01T12:01:11.011Z,16.08
2019-05-01T12:02:10.997Z,15.87
2019-05-01T12:03:11.014Z,16.05
2019-05-01T12:04:10.979Z,16.10
2019-05-01T12:05:10.965Z,16.09
2019-05-01T12:06:22.323Z,16.22
2019-05-01T12:07:11.951Z,16.26
2019-05-01T12:08:10.957Z,16.37
2019-05-01T12:09:10.914Z,16.42
2019-05-01T12:10:10.910Z,16.51
2019-05-01T12:11:10.913Z,16.46
2019-05-01T12:12:10.883Z,16.64
2019-05-01T12:13:10.888Z,16.62
2019-05-01T12:14:10.859Z,16.46
2019-05-01T12:15:10.852Z,16.21
2019-05-01T12:16:10.841Z,15.85
2019-05-01T12:17:10.825Z,15.78
2019-05-01T12:18:10.856Z,15.80
2019-05-01T12:19:10.809Z,15.66
2019-05-01T12:20:10.794Z,15.91
2019-05-01T12:21:10.778Z,15.91
2019-05-01T12:22:10.777Z,16.05
2019-05-01T12:23:10.757Z,15.78
2019-05-01T12:24:10.860Z,15.90
2019-05-01T12:25:10.736Z,15.98
2019-05-01T12:26:10.729Z,16.17
2019-05-01T12:27:10.720Z,16.24
2019-05-01T12:28:10.715Z,16.57
2019-05-01T12:29:10.912Z,16.49
2019-05-01T12:30:10.682Z,16.54
2019-05-01T12:31:10.715Z,16.55
2019-05-01T12:32:10.670Z,16.39
2019-05-01T12:33:10.653Z,15.96
2019-05-01T12:34:10.655Z,15.98
2019-05-01T12:35:10.627Z,16.05
2019-05-01T12:36:10.617Z,16.10
2019-05-01T12:37:10.677Z,16.08
2019-05-01T12:38:10.590Z,16.18
2019-05-01T12:39:10.651Z,16.39
2019-05-01T12:40:10.566Z,16.54
2019-05-01T12:41:10.625Z,16.62
2019-05-01T12:42:10.543Z,16.79
2019-05-01T12:43:12.276Z,16.88
2019-05-01T12:44:10.600Z,17.04
2019-05-01T12:45:10.518Z,17.02
2019-05-01T12:46:10.495Z,17.01
2019-05-01T12:47:10.495Z,17.10
2019-05-01T12:48:10.479Z,17.20
2019-05-01T12:49:10.470Z,17.25
2019-05-01T12:50:10.489Z,17.34
2019-05-01T12:51:10.443Z,17.34
2019-05-01T12:52:10.970Z,17.50
2019-05-01T12:53:10.422Z,17.53
2019-05-01T12:54:10.408Z,17.66
2019-05-01T12:55:10.446Z,17.76
2019-05-01T12:56:10.390Z,17.63
2019-05-01T12:57:10.378Z,17.45
2019-05-01T12:58:10.370Z,17.32
2019-05-01T12:59:10.353Z,17.16
2019-05-01T13:00:10.388Z,17.06
2019-05-01T13:01:10.329Z,17.27
2019-05-01T13:02:10.325Z,16.94
2019-05-01T13:03:10.311Z,16.97
2019-05-01T13:04:10.302Z,17.02
2019-05-01T13:05:10.326Z,16.99
2019-05-01T13:06:10.280Z,17.19